WetterOnline ( http://www.wetteronline.de )

Wetter aktuell Lage

Aktuelles Wetter: Bad Salzuflen (139m)

6-stündlich | Neueste Meldungen
Ortszeit Temperatur Wetter
Do, 19.07. 14:00 24.2° C leicht bewölkt
Do, 19.07. 8:00 16.0° C wolkenlos
Do, 19.07. 2:00 14.4° C bedeckt
Mi, 18.07. 20:00 23.3° C wolkig
Mi, 18.07. 14:00 24.2° C bedeckt
Mi, 18.07. 8:00 16.6° C fast wolkenlos
Mi, 18.07. 2:00 17.9° C bewölkt
Di, 17.07. 20:00 27.0° C bewölkt
Ortszeit Temperatur Wetter
Do, 19.07. 19:00 25.1° C bedeckt
Do, 19.07. 18:30 23.9° C leicht bewölkt
Do, 19.07. 18:20 23.9° C leicht bewölkt
Do, 19.07. 18:10 23.7° C wolkig
Do, 19.07. 18:00 24.3° C bewölkt
Do, 19.07. 17:50 24.3° C bedeckt
Do, 19.07. 17:30 25.2° C wolkenlos
Do, 19.07. 17:00 25.6° C fast wolkenlos
Do, 19.07. 16:30 26.2° C leicht bewölkt
Do, 19.07. 16:00 24.1° C leicht bewölkt
Do, 19.07. 15:30 25.4° C leicht bewölkt
Ortszeit Relative Feuchte Sichtweite
Do, 19.07. 14:00 35% 35 km
Do, 19.07. 8:00 70% 65 km
Do, 19.07. 2:00 69% 70 km
Mi, 18.07. 20:00 42% 70 km
Mi, 18.07. 14:00 39% 40 km
Mi, 18.07. 8:00 76% 28 km
Mi, 18.07. 2:00 74% 40 km
Di, 17.07. 20:00 35% 70 km
Ortszeit Relative Feuchte Sichtweite
Do, 19.07. 19:00 44% 70 km
Do, 19.07. 18:30 44% 70 km
Do, 19.07. 18:20 44% -
Do, 19.07. 18:10 50% -
Do, 19.07. 18:00 38% 70 km
Do, 19.07. 17:50 38% -
Do, 19.07. 17:30 37% 70 km
Do, 19.07. 17:00 32% 35 km
Do, 19.07. 16:30 32% 40 km
Do, 19.07. 16:00 34% 70 km
Do, 19.07. 15:30 34% 35 km
Ortszeit Niederschlagsmenge Niederschlagsart
Do, 19.07. 14:00 0.0 l/m2 in 6 Std. -
Do, 19.07. 8:00 0.0 l/m2 in 12 Std. -
Do, 19.07. 2:00 0.0 l/m2 in 6 Std. -
Mi, 18.07. 20:00 0.0 l/m2 in 12 Std. -
Mi, 18.07. 14:00 0.0 l/m2 in 6 Std. -
Mi, 18.07. 8:00 0.0 l/m2 in 12 Std. -
Mi, 18.07. 2:00 0.0 l/m2 in 6 Std. -
Di, 17.07. 20:00 0.0 l/m2 in 12 Std. -
Ortszeit Niederschlagsmenge Niederschlagsart
Do, 19.07. 19:00 keine Meldung -
Do, 19.07. 18:30 0.0 l/m2 in 1 Std. -
Do, 19.07. 18:20 keine Meldung -
Do, 19.07. 18:10 keine Meldung -
Do, 19.07. 18:00 0.0 l/m2 in 1 Std. -
Do, 19.07. 17:50 keine Meldung -
Do, 19.07. 17:30 0.0 l/m2 in 1 Std. -
Do, 19.07. 17:00 0.0 l/m2 in 1 Std. Niederschlag
Do, 19.07. 16:30 0.0 l/m2 in 1 Std. -
Do, 19.07. 16:00 0.0 l/m2 in 1 Std. -
Do, 19.07. 15:30 0.0 l/m2 in 1 Std. -
Ortszeit Stärke Spitze Richtung
km/h Bft. km/h Grad Sektor
Do, 19.07. 14:00 7 2 18 320° NW
Do, 19.07. 8:00 0 0 7 - -
Do, 19.07. 2:00 4 1 22 30° NO
Mi, 18.07. 20:00 7 2 29 330° NW
Mi, 18.07. 14:00 11 2 29 310° NW
Mi, 18.07. 8:00 7 2 22 290° W
Mi, 18.07. 2:00 6 1 31 300° NW
Di, 17.07. 20:00 9 2 28 270° W
Ortszeit Stärke Spitze Richtung
km/h Bft. km/h Grad Sektor
Do, 19.07. 19:00 2 1 6 90° O
Do, 19.07. 18:30 2 1 6 330° NW
Do, 19.07. 18:20 2 1 - 330° NW
Do, 19.07. 18:10 4 1 - 340° N
Do, 19.07. 18:00 6 1 11 10° N
Do, 19.07. 17:50 6 1 - 10° N
Do, 19.07. 17:30 4 1 11 290° W
Do, 19.07. 17:00 7 2 15 350° N
Do, 19.07. 16:30 7 2 14 340° N
Do, 19.07. 16:00 4 1 18 170° S
Do, 19.07. 15:30 11 2 18 350° N
Ortszeit Untergrenze Bedeckung Gattung
total tief tief mittel hoch
Do, 19.07. 14:00 1800 m 2/8 2/8 - - -
Do, 19.07. 8:00 - 0/8 0/8 - - -
Do, 19.07. 2:00 - 8/8 - - - -
Mi, 18.07. 20:00 1800 m 8/8 8/8 - - -
Mi, 18.07. 14:00 1500 m 8/8 8/8 - - -
Mi, 18.07. 8:00 2100 m 1/8 1/8 - - -
Mi, 18.07. 2:00 1440 m 7/8 7/8 - - -
Di, 17.07. 20:00 2100 m 8/8 5/8 - - -
Ortszeit Bedeckungsgrad in Achtel und Wolkenuntergrenze
Do, 19.07. 19:00 8
Do, 19.07. 18:30 2(2100m) 4(3000m)
Do, 19.07. 18:20 2(2100m) 4(3000m)
Do, 19.07. 18:10 4(2100m) 5(3000m)
Do, 19.07. 18:00 5(2100m) 6(3000m)
Do, 19.07. 17:50 9 9 9
Do, 19.07. 17:30 1(2100m) 2(3000m)
Do, 19.07. 17:00 1(3000m)
Do, 19.07. 16:30 2(2100m) 2(3000m)
Do, 19.07. 16:00 3(2100m)
Do, 19.07. 15:30 3(1800m) 9 9
Ortszeit Luftdruck NN (hPa) Tendenz (hPa in 3 Std.)
Do, 19.07. 14:00 1019 - 0,7
Do, 19.07. 8:00 1020 + 0,2
Do, 19.07. 2:00 1020 + 0,4
Mi, 18.07. 20:00 1018 - 0,3
Mi, 18.07. 14:00 1018 + 0,1
Mi, 18.07. 8:00 1018 + 0,9
Mi, 18.07. 2:00 1017 + 1,5
Di, 17.07. 20:00 1013 0,0
Ortszeit Luftdruck NN (hPa) Tendenz (hPa in 3 Std.)
Do, 19.07. 19:00 1017 - 1,1
Do, 19.07. 18:30 1017 - 1,0
Do, 19.07. 18:20 1017 keine Meldung
Do, 19.07. 18:10 1017 keine Meldung
Do, 19.07. 18:00 1017 - 0,9
Do, 19.07. 17:50 1017 keine Meldung
Do, 19.07. 17:30 1017 - 0,8
Do, 19.07. 17:00 1018 - 0,9
Do, 19.07. 16:30 1018 - 1,0
Do, 19.07. 16:00 1018 - 0,9
Do, 19.07. 15:30 1018 - 1,0
Ortszeit Schneehöhe (cm)
Do, 19.07. 14:00 -
Do, 19.07. 8:00 -
Do, 19.07. 2:00 -
Mi, 18.07. 20:00 -
Mi, 18.07. 14:00 -
Mi, 18.07. 8:00 -
Mi, 18.07. 2:00 -
Di, 17.07. 20:00 -
Ortszeit Schneehöhe (cm)
Do, 19.07. 19:00 -
Do, 19.07. 18:30 -
Do, 19.07. 18:20 -
Do, 19.07. 18:10 -
Do, 19.07. 18:00 -
Do, 19.07. 17:50 -
Do, 19.07. 17:30 -
Do, 19.07. 17:00 -
Do, 19.07. 16:30 -
Do, 19.07. 16:00 -
Do, 19.07. 15:30 -
Link zu dieser Seite / Seite empfehlen

Das Wetter in ...